sensor_id;sensor_type;location;lat;lon;timestamp;pressure;altitude;pressure_sealevel;temperature;humidity
28935;BME280;16044;52.726;-2.108;2023-01-15T00:02:08;98629.19;;;2.76;81.97
28935;BME280;16044;52.726;-2.108;2023-01-15T00:04:35;98617.31;;;2.78;81.36
28935;BME280;16044;52.726;-2.108;2023-01-15T00:07:02;98619.63;;;2.81;81.22
28935;BME280;16044;52.726;-2.108;2023-01-15T00:09:30;98617.31;;;2.78;81.53
28935;BME280;16044;52.726;-2.108;2023-01-15T00:11:57;98614.09;;;2.83;81.31
28935;BME280;16044;52.726;-2.108;2023-01-15T00:14:24;98613.13;;;2.84;81.38
28935;BME280;16044;52.726;-2.108;2023-01-15T00:16:51;98603.94;;;2.78;81.58
28935;BME280;16044;52.726;-2.108;2023-01-15T00:19:18;98610.63;;;2.74;81.85
28935;BME280;16044;52.726;-2.108;2023-01-15T00:21:45;98621.31;;;2.74;82.49
28935;BME280;16044;52.726;-2.108;2023-01-15T00:24:12;98607.97;;;2.66;83.23
28935;BME280;16044;52.726;-2.108;2023-01-15T00:26:57;98605.66;;;2.63;83.58
28935;BME280;16044;52.726;-2.108;2023-01-15T00:29:43;98611.50;;;2.58;83.93
28935;BME280;16044;52.726;-2.108;2023-01-15T00:32:10;98607.84;;;2.59;83.69
28935;BME280;16044;52.726;-2.108;2023-01-15T00:34:37;98594.97;;;2.54;83.47
28935;BME280;16044;52.726;-2.108;2023-01-15T00:37:04;98593.44;;;2.60;82.82
28935;BME280;16044;52.726;-2.108;2023-01-15T00:39:31;98609.34;;;2.62;82.01
28935;BME280;16044;52.726;-2.108;2023-01-15T00:41:58;98593.44;;;2.60;81.71
28935;BME280;16044;52.726;-2.108;2023-01-15T00:44:25;98587.59;;;2.65;81.29
28935;BME280;16044;52.726;-2.108;2023-01-15T00:46:52;98589.63;;;2.63;81.36
28935;BME280;16044;52.726;-2.108;2023-01-15T00:49:20;98588.59;;;2.64;81.42
28935;BME280;16044;52.726;-2.108;2023-01-15T00:51:47;98595.31;;;2.60;81.84
28935;BME280;16044;52.726;-2.108;2023-01-15T00:54:16;98583.25;;;2.64;81.90
28935;BME280;16044;52.726;-2.108;2023-01-15T00:56:43;98589.94;;;2.60;82.11
28935;BME280;16044;52.726;-2.108;2023-01-15T00:59:10;98575.25;;;2.56;82.31
28935;BME280;16044;52.726;-2.108;2023-01-15T01:01:37;98590.94;;;2.59;82.31
28935;BME280;16044;52.726;-2.108;2023-01-15T01:04:04;98588.94;;;2.61;82.27
28935;BME280;16044;52.726;-2.108;2023-01-15T01:06:32;98590.94;;;2.59;82.22
28935;BME280;16044;52.726;-2.108;2023-01-15T01:08:58;98580.25;;;2.59;81.35
28935;BME280;16044;52.726;-2.108;2023-01-15T01:11:25;98580.56;;;2.64;80.31
28935;BME280;16044;52.726;-2.108;2023-01-15T01:13:54;98581.94;;;2.60;80.18
28935;BME280;16044;52.726;-2.108;2023-01-15T01:16:26;98595.31;;;2.60;80.38
28935;BME280;16044;52.726;-2.108;2023-01-15T01:19:09;98584.94;;;2.57;80.92
28935;BME280;16044;52.726;-2.108;2023-01-15T01:21:38;98574.56;;;2.62;80.76
28935;BME280;16044;52.726;-2.108;2023-01-15T01:24:07;98576.56;;;2.60;80.74
28935;BME280;16044;52.726;-2.108;2023-01-15T01:26:36;98567.91;;;2.58;81.19
28935;BME280;16044;52.726;-2.108;2023-01-15T01:29:03;98570.41;;;2.51;81.53
28935;BME280;16044;52.726;-2.108;2023-01-15T01:31:30;98554.19;;;2.52;81.33
28935;BME280;16044;52.726;-2.108;2023-01-15T01:33:58;98563.91;;;2.45;81.68
28935;BME280;16044;52.726;-2.108;2023-01-15T01:36:28;98561.56;;;2.50;81.73
28935;BME280;16044;52.726;-2.108;2023-01-15T01:38:58;98550.22;;;2.48;81.91
28935;BME280;16044;52.726;-2.108;2023-01-15T01:41:26;98567.59;;;2.44;82.28
28935;BME280;16044;52.726;-2.108;2023-01-15T01:44:06;98574.59;;;2.45;82.12
28935;BME280;16044;52.726;-2.108;2023-01-15T01:46:52;98585.66;;;2.42;82.51
28935;BME280;16044;52.726;-2.108;2023-01-15T01:49:19;98592.00;;;2.41;83.20
28935;BME280;16044;52.726;-2.108;2023-01-15T01:51:49;98580.31;;;2.42;83.72
28935;BME280;16044;52.726;-2.108;2023-01-15T01:54:21;98586.28;;;2.52;83.71
28935;BME280;16044;52.726;-2.108;2023-01-15T01:56:52;98587.97;;;2.53;84.26
28935;BME280;16044;52.726;-2.108;2023-01-15T01:59:20;98593.31;;;2.53;84.60
28935;BME280;16044;52.726;-2.108;2023-01-15T02:01:49;98586.44;;;2.59;84.82
28935;BME280;16044;52.726;-2.108;2023-01-15T02:04:19;98582.59;;;2.62;85.55
28935;BME280;16044;52.726;-2.108;2023-01-15T02:06:47;98589.25;;;2.66;85.73
28935;BME280;16044;52.726;-2.108;2023-01-15T02:09:14;98566.88;;;2.67;86.15
28935;BME280;16044;52.726;-2.108;2023-01-15T02:11:41;98572.34;;;2.73;86.41
28935;BME280;16044;52.726;-2.108;2023-01-15T02:14:20;98561.47;;;2.75;86.28
28935;BME280;16044;52.726;-2.108;2023-01-15T02:17:14;98570.97;;;2.78;86.51
28935;BME280;16044;52.726;-2.108;2023-01-15T02:20:14;98570.47;;;2.82;86.36
28935;BME280;16044;52.726;-2.108;2023-01-15T02:23:18;98567.13;;;2.80;86.97
28935;BME280;16044;52.726;-2.108;2023-01-15T02:28:49;98560.09;;;2.79;89.09
28935;BME280;16044;52.726;-2.108;2023-01-15T02:31:29;98555.94;;;2.77;89.79
28935;BME280;16044;52.726;-2.108;2023-01-15T02:34:23;98556.13;;;2.75;90.29
28935;BME280;16044;52.726;-2.108;2023-01-15T02:36:57;98542.69;;;2.83;90.22
28935;BME280;16044;52.726;-2.108;2023-01-15T02:39:30;98540.00;;;2.83;90.36
28935;BME280;16044;52.726;-2.108;2023-01-15T02:42:01;98535.53;;;2.84;90.17
28935;BME280;16044;52.726;-2.108;2023-01-15T02:44:31;98522.31;;;2.82;90.57
28935;BME280;16044;52.726;-2.108;2023-01-15T02:47:00;98516.13;;;2.82;90.90
28935;BME280;16044;52.726;-2.108;2023-01-15T02:49:29;98511.94;;;2.79;90.93
28935;BME280;16044;52.726;-2.108;2023-01-15T02:52:06;98501.25;;;2.79;90.80
28935;BME280;16044;52.726;-2.108;2023-01-15T02:54:52;98495.63;;;2.66;91.42
28935;BME280;16044;52.726;-2.108;2023-01-15T02:57:25;98478.44;;;2.60;91.56
28935;BME280;16044;52.726;-2.108;2023-01-15T02:59:55;98487.88;;;2.48;92.71
28935;BME280;16044;52.726;-2.108;2023-01-15T03:02:27;98488.06;;;2.38;92.60
28935;BME280;16044;52.726;-2.108;2023-01-15T03:05:08;98482.44;;;2.33;93.09
28935;BME280;16044;52.726;-2.108;2023-01-15T03:07:46;98484.94;;;2.26;93.69
28935;BME280;16044;52.726;-2.108;2023-01-15T03:10:16;98495.13;;;2.23;94.54
28935;BME280;16044;52.726;-2.108;2023-01-15T03:12:56;98489.84;;;2.14;95.54
28935;BME280;16044;52.726;-2.108;2023-01-15T03:19:10;98483.13;;;2.19;96.56
28935;BME280;16044;52.726;-2.108;2023-01-15T03:24:23;98481.78;;;2.23;97.23
28935;BME280;16044;52.726;-2.108;2023-01-15T03:27:02;98467.75;;;2.29;97.35
28935;BME280;16044;52.726;-2.108;2023-01-15T03:29:33;98458.22;;;2.26;97.64
28935;BME280;16044;52.726;-2.108;2023-01-15T03:32:07;98458.00;;;2.36;97.77
28935;BME280;16044;52.726;-2.108;2023-01-15T03:34:47;98457.00;;;2.37;97.56
28935;BME280;16044;52.726;-2.108;2023-01-15T03:37:17;98448.66;;;2.40;97.52
28935;BME280;16044;52.726;-2.108;2023-01-15T03:39:45;98439.09;;;2.38;97.72
28935;BME280;16044;52.726;-2.108;2023-01-15T03:42:38;98434.13;;;2.34;97.73
28935;BME280;16044;52.726;-2.108;2023-01-15T03:45:17;98425.41;;;2.41;97.36
28935;BME280;16044;52.726;-2.108;2023-01-15T03:47:59;98416.41;;;2.33;97.28
28935;BME280;16044;52.726;-2.108;2023-01-15T03:50:52;98420.94;;;2.33;97.30
28935;BME280;16044;52.726;-2.108;2023-01-15T03:53:30;98418.59;;;2.30;97.90
28935;BME280;16044;52.726;-2.108;2023-01-15T03:58:46;98414.44;;;2.27;98.43
28935;BME280;16044;52.726;-2.108;2023-01-15T04:01:24;98425.25;;;2.34;98.10
28935;BME280;16044;52.726;-2.108;2023-01-15T04:03:54;98429.59;;;2.35;97.89
28935;BME280;16044;52.726;-2.108;2023-01-15T04:06:22;98412.53;;;2.36;98.08
28935;BME280;16044;52.726;-2.108;2023-01-15T04:08:52;98404.53;;;2.36;97.96
28935;BME280;16044;52.726;-2.108;2023-01-15T04:11:24;98413.25;;;2.30;98.29
28935;BME280;16044;52.726;-2.108;2023-01-15T04:13:52;98409.88;;;2.36;98.15
28935;BME280;16044;52.726;-2.108;2023-01-15T04:16:25;98399.81;;;2.38;98.44
28935;BME280;16044;52.726;-2.108;2023-01-15T04:18:53;98399.81;;;2.38;98.56
28935;BME280;16044;52.726;-2.108;2023-01-15T04:21:21;98399.81;;;2.38;98.29
28935;BME280;16044;52.726;-2.108;2023-01-15T04:23:48;98400.84;;;2.37;98.34
28935;BME280;16044;52.726;-2.108;2023-01-15T04:26:15;98389.63;;;2.42;98.51
28935;BME280;16044;52.726;-2.108;2023-01-15T04:28:44;98393.50;;;2.39;98.88
28935;BME280;16044;52.726;-2.108;2023-01-15T04:31:11;98386.59;;;2.45;98.70
28935;BME280;16044;52.726;-2.108;2023-01-15T04:33:38;98382.44;;;2.42;98.89
28935;BME280;16044;52.726;-2.108;2023-01-15T04:36:06;98373.41;;;2.43;98.81
28935;BME280;16044;52.726;-2.108;2023-01-15T04:38:36;98367.72;;;2.46;99.03
28935;BME280;16044;52.726;-2.108;2023-01-15T04:41:04;98368.06;;;2.43;99.38
28935;BME280;16044;52.726;-2.108;2023-01-15T04:43:50;98362.84;;;2.50;99.02
28935;BME280;16044;52.726;-2.108;2023-01-15T04:46:43;98375.03;;;2.52;98.90
28935;BME280;16044;52.726;-2.108;2023-01-15T04:49:14;98365.81;;;2.55;98.98
28935;BME280;16044;52.726;-2.108;2023-01-15T04:51:42;98373.00;;;2.54;98.89
28935;BME280;16044;52.726;-2.108;2023-01-15T04:54:12;98370.47;;;2.61;98.74
28935;BME280;16044;52.726;-2.108;2023-01-15T04:56:46;98364.16;;;2.54;99.01
28935;BME280;16044;52.726;-2.108;2023-01-15T04:59:18;98374.97;;;2.61;98.78
28935;BME280;16044;52.726;-2.108;2023-01-15T05:01:50;98372.66;;;2.58;99.06
28935;BME280;16044;52.726;-2.108;2023-01-15T05:04:30;98362.63;;;2.60;99.10
28935;BME280;16044;52.726;-2.108;2023-01-15T05:07:00;98353.13;;;2.57;99.62
28935;BME280;16044;52.726;-2.108;2023-01-15T05:09:28;98353.75;;;2.59;99.50
28935;BME280;16044;52.726;-2.108;2023-01-15T05:11:55;98352.91;;;2.59;99.60
28935;BME280;16044;52.726;-2.108;2023-01-15T05:14:21;98350.88;;;2.61;99.43
28935;BME280;16044;52.726;-2.108;2023-01-15T05:16:48;98356.53;;;2.66;99.53
28935;BME280;16044;52.726;-2.108;2023-01-15T05:19:15;98357.84;;;2.70;99.42
28935;BME280;16044;52.726;-2.108;2023-01-15T05:21:43;98360.81;;;2.75;99.81
28935;BME280;16044;52.726;-2.108;2023-01-15T05:24:15;98366.47;;;2.80;99.95
28935;BME280;16044;52.726;-2.108;2023-01-15T05:26:43;98369.63;;;2.84;99.44
28935;BME280;16044;52.726;-2.108;2023-01-15T05:29:11;98363.06;;;2.86;99.11
28935;BME280;16044;52.726;-2.108;2023-01-15T05:31:39;98363.91;;;2.87;98.80
28935;BME280;16044;52.726;-2.108;2023-01-15T05:34:08;98368.78;;;2.83;98.71
28935;BME280;16044;52.726;-2.108;2023-01-15T05:36:36;98363.16;;;2.78;98.63
28935;BME280;16044;52.726;-2.108;2023-01-15T05:39:03;98367.31;;;2.81;98.61
28935;BME280;16044;52.726;-2.108;2023-01-15T05:41:31;98376.53;;;2.78;98.92
28935;BME280;16044;52.726;-2.108;2023-01-15T05:44:27;98373.31;;;2.83;98.41
28935;BME280;16044;52.726;-2.108;2023-01-15T05:46:57;98368.50;;;2.78;98.49
28935;BME280;16044;52.726;-2.108;2023-01-15T05:49:28;98377.84;;;2.82;98.33
28935;BME280;16044;52.726;-2.108;2023-01-15T05:51:58;98374.13;;;2.83;98.36
28935;BME280;16044;52.726;-2.108;2023-01-15T05:54:33;98389.84;;;2.86;98.44
28935;BME280;16044;52.726;-2.108;2023-01-15T05:57:02;98386.97;;;2.88;98.67
28935;BME280;16044;52.726;-2.108;2023-01-15T05:59:30;98376.75;;;2.91;98.25
28935;BME280;16044;52.726;-2.108;2023-01-15T06:01:58;98374.44;;;2.88;98.51
28935;BME280;16044;52.726;-2.108;2023-01-15T06:04:25;98372.78;;;2.87;98.36
28935;BME280;16044;52.726;-2.108;2023-01-15T06:06:53;98367.34;;;2.96;98.42
28935;BME280;16044;52.726;-2.108;2023-01-15T06:09:21;98362.81;;;2.96;97.60
28935;BME280;16044;52.726;-2.108;2023-01-15T06:11:49;98368.00;;;2.98;97.65
28935;BME280;16044;52.726;-2.108;2023-01-15T06:14:16;98375.91;;;2.91;97.66
28935;BME280;16044;52.726;-2.108;2023-01-15T06:16:44;98359.97;;;2.98;97.08
28935;BME280;16044;52.726;-2.108;2023-01-15T06:19:14;98375.22;;;2.97;97.31
28935;BME280;16044;52.726;-2.108;2023-01-15T06:21:41;98376.50;;;3.01;97.14
28935;BME280;16044;52.726;-2.108;2023-01-15T06:24:08;98377.81;;;3.05;96.67
28935;BME280;16044;52.726;-2.108;2023-01-15T06:26:37;98375.31;;;3.04;96.22
28935;BME280;16044;52.726;-2.108;2023-01-15T06:29:05;98376.59;;;3.08;95.53
28935;BME280;16044;52.726;-2.108;2023-01-15T06:31:31;98385.97;;;3.12;94.92
28935;BME280;16044;52.726;-2.108;2023-01-15T06:33:58;98384.59;;;3.16;94.29
28935;BME280;16044;52.726;-2.108;2023-01-15T06:36:26;98383.84;;;3.22;93.44
28935;BME280;16044;52.726;-2.108;2023-01-15T06:38:54;98373.78;;;3.24;92.24
28935;BME280;16044;52.726;-2.108;2023-01-15T06:41:23;98374.25;;;3.28;91.79
28935;BME280;16044;52.726;-2.108;2023-01-15T06:44:15;98368.00;;;3.36;90.48
28935;BME280;16044;52.726;-2.108;2023-01-15T06:47:18;98387.38;;;3.38;89.73
28935;BME280;16044;52.726;-2.108;2023-01-15T06:49:55;98379.00;;;3.41;89.54
28935;BME280;16044;52.726;-2.108;2023-01-15T06:52:25;98389.78;;;3.47;89.06
28935;BME280;16044;52.726;-2.108;2023-01-15T06:54:53;98393.97;;;3.50;89.17
28935;BME280;16044;52.726;-2.108;2023-01-15T06:57:20;98404.94;;;3.55;88.65
28935;BME280;16044;52.726;-2.108;2023-01-15T06:59:48;98405.25;;;3.60;88.10
28935;BME280;16044;52.726;-2.108;2023-01-15T07:02:16;98410.25;;;3.63;88.22
28935;BME280;16044;52.726;-2.108;2023-01-15T07:04:44;98413.19;;;3.68;88.03
28935;BME280;16044;52.726;-2.108;2023-01-15T07:07:17;98408.09;;;3.74;87.82
28935;BME280;16044;52.726;-2.108;2023-01-15T07:09:44;98406.06;;;3.76;87.82
28935;BME280;16044;52.726;-2.108;2023-01-15T07:12:11;98420.13;;;3.78;88.35
28935;BME280;16044;52.726;-2.108;2023-01-15T07:14:38;98423.09;;;3.83;88.38
28935;BME280;16044;52.726;-2.108;2023-01-15T07:17:05;98420.69;;;3.88;88.07
28935;BME280;16044;52.726;-2.108;2023-01-15T07:19:32;98422.34;;;3.89;88.46
28935;BME280;16044;52.726;-2.108;2023-01-15T07:21:59;98417.72;;;3.83;88.89
28935;BME280;16044;52.726;-2.108;2023-01-15T07:24:26;98423.91;;;3.83;89.27
28935;BME280;16044;52.726;-2.108;2023-01-15T07:26:53;98417.91;;;3.81;89.83
28935;BME280;16044;52.726;-2.108;2023-01-15T07:29:20;98431.94;;;3.83;90.17
28935;BME280;16044;52.726;-2.108;2023-01-15T07:31:47;98440.38;;;3.80;90.33
28935;BME280;16044;52.726;-2.108;2023-01-15T07:34:15;98430.31;;;3.82;89.72
28935;BME280;16044;52.726;-2.108;2023-01-15T07:36:42;98432.53;;;3.79;89.86
28935;BME280;16044;52.726;-2.108;2023-01-15T07:39:10;98440.72;;;3.77;89.89
28935;BME280;16044;52.726;-2.108;2023-01-15T07:41:38;98445.91;;;3.79;90.14
28935;BME280;16044;52.726;-2.108;2023-01-15T07:44:24;98448.94;;;3.76;90.04
28935;BME280;16044;52.726;-2.108;2023-01-15T07:47:16;98453.78;;;3.80;90.08
28935;BME280;16044;52.726;-2.108;2023-01-15T07:50:05;98446.91;;;3.78;89.93
28935;BME280;16044;52.726;-2.108;2023-01-15T07:52:34;98444.81;;;3.73;90.03
28935;BME280;16044;52.726;-2.108;2023-01-15T07:55:01;98438.63;;;3.73;90.32
28935;BME280;16044;52.726;-2.108;2023-01-15T07:57:29;98446.09;;;3.77;90.15
28935;BME280;16044;52.726;-2.108;2023-01-15T07:59:56;98448.41;;;3.80;89.88
28935;BME280;16044;52.726;-2.108;2023-01-15T08:02:23;98467.19;;;3.80;89.87
28935;BME280;16044;52.726;-2.108;2023-01-15T08:04:50;98457.75;;;3.84;89.73
28935;BME280;16044;52.726;-2.108;2023-01-15T08:07:17;98470.97;;;3.86;89.84
28935;BME280;16044;52.726;-2.108;2023-01-15T08:09:44;98481.13;;;3.90;89.83
28935;BME280;16044;52.726;-2.108;2023-01-15T08:12:11;98487.31;;;3.91;90.14
28935;BME280;16044;52.726;-2.108;2023-01-15T08:14:56;98496.28;;;3.98;90.22
28935;BME280;16044;52.726;-2.108;2023-01-15T08:17:43;98513.66;;;4.02;90.37
28935;BME280;16044;52.726;-2.108;2023-01-15T08:20:24;98523.03;;;4.06;90.50
28935;BME280;16044;52.726;-2.108;2023-01-15T08:22:52;98517.84;;;4.05;90.71
28935;BME280;16044;52.726;-2.108;2023-01-15T08:25:21;98522.28;;;4.13;90.98
28935;BME280;16044;52.726;-2.108;2023-01-15T08:27:50;98515.19;;;4.20;90.82
28935;BME280;16044;52.726;-2.108;2023-01-15T08:30:21;98513.69;;;4.17;91.09
28935;BME280;16044;52.726;-2.108;2023-01-15T08:32:49;98520.34;;;4.21;91.27
28935;BME280;16044;52.726;-2.108;2023-01-15T08:35:16;98524.22;;;4.19;91.09
28935;BME280;16044;52.726;-2.108;2023-01-15T08:37:43;98519.16;;;4.24;90.90
28935;BME280;16044;52.726;-2.108;2023-01-15T08:40:11;98519.81;;;4.26;90.50
28935;BME280;16044;52.726;-2.108;2023-01-15T08:42:38;98520.44;;;4.28;90.01
28935;BME280;16044;52.726;-2.108;2023-01-15T08:45:06;98510.00;;;4.33;89.93
28935;BME280;16044;52.726;-2.108;2023-01-15T08:47:34;98527.75;;;4.34;89.82
28935;BME280;16044;52.726;-2.108;2023-01-15T08:50:04;98525.34;;;4.39;89.89
28935;BME280;16044;52.726;-2.108;2023-01-15T08:52:32;98537.72;;;4.40;89.19
28935;BME280;16044;52.726;-2.108;2023-01-15T08:54:58;98539.22;;;4.43;88.96
28935;BME280;16044;52.726;-2.108;2023-01-15T08:57:26;98542.75;;;4.43;89.01
28935;BME280;16044;52.726;-2.108;2023-01-15T08:59:53;98541.09;;;4.42;88.78
28935;BME280;16044;52.726;-2.108;2023-01-15T09:02:20;98546.72;;;4.47;88.50
28935;BME280;16044;52.726;-2.108;2023-01-15T09:04:46;98554.94;;;4.46;88.46
28935;BME280;16044;52.726;-2.108;2023-01-15T09:07:13;98552.72;;;4.49;88.26
28935;BME280;16044;52.726;-2.108;2023-01-15T09:09:40;98555.03;;;4.53;87.75
28935;BME280;16044;52.726;-2.108;2023-01-15T09:12:07;98559.19;;;4.55;87.63
28935;BME280;16044;52.726;-2.108;2023-01-15T09:14:34;98556.97;;;4.59;87.43
28935;BME280;16044;52.726;-2.108;2023-01-15T09:17:21;98562.44;;;4.51;87.89
28935;BME280;16044;52.726;-2.108;2023-01-15T09:19:48;98568.34;;;4.61;87.44
28935;BME280;16044;52.726;-2.108;2023-01-15T09:22:15;98568.34;;;4.61;87.19
28935;BME280;16044;52.726;-2.108;2023-01-15T09:24:42;98563.56;;;4.56;87.43
28935;BME280;16044;52.726;-2.108;2023-01-15T09:27:13;98567.72;;;4.59;86.98
28935;BME280;16044;52.726;-2.108;2023-01-15T09:29:40;98568.16;;;4.62;86.94
28935;BME280;16044;52.726;-2.108;2023-01-15T09:32:07;98568.34;;;4.61;87.40
28935;BME280;16044;52.726;-2.108;2023-01-15T09:34:36;98571.91;;;4.61;87.44
28935;BME280;16044;52.726;-2.108;2023-01-15T09:37:03;98578.56;;;4.65;87.40
28935;BME280;16044;52.726;-2.108;2023-01-15T09:39:30;98585.19;;;4.69;86.93
28935;BME280;16044;52.726;-2.108;2023-01-15T09:56:03;98616.47;;;4.77;86.87
28935;BME280;16044;52.726;-2.108;2023-01-15T09:58:39;98607.50;;;4.85;86.69
28935;BME280;16044;52.726;-2.108;2023-01-15T10:01:15;98610.81;;;4.87;86.33
28935;BME280;16044;52.726;-2.108;2023-01-15T10:06:26;98612.41;;;4.96;85.94
28935;BME280;16044;52.726;-2.108;2023-01-15T10:09:13;98607.50;;;5.00;85.30
28935;BME280;16044;52.726;-2.108;2023-01-15T10:11:47;98609.81;;;5.03;84.95
28935;BME280;16044;52.726;-2.108;2023-01-15T10:14:56;98614.06;;;4.97;84.97
28935;BME280;16044;52.726;-2.108;2023-01-15T10:17:38;98619.06;;;5.00;84.02
28935;BME280;16044;52.726;-2.108;2023-01-15T10:29:09;98650.97;;;5.10;83.27
28935;BME280;16044;52.726;-2.108;2023-01-15T10:31:52;98654.31;;;5.12;82.85
28935;BME280;16044;52.726;-2.108;2023-01-15T10:37:19;98649.03;;;5.19;82.55
28935;BME280;16044;52.726;-2.108;2023-01-15T10:45:13;98650.22;;;5.31;82.23
28935;BME280;16044;52.726;-2.108;2023-01-15T10:47:48;98652.06;;;5.31;81.76
28935;BME280;16044;52.726;-2.108;2023-01-15T10:50:21;98655.41;;;5.33;82.07
28935;BME280;16044;52.726;-2.108;2023-01-15T10:53:04;98666.16;;;5.33;81.63
28935;BME280;16044;52.726;-2.108;2023-01-15T10:55:37;98662.06;;;5.37;82.13
28935;BME280;16044;52.726;-2.108;2023-01-15T11:01:12;98680.13;;;5.43;81.46
28935;BME280;16044;52.726;-2.108;2023-01-15T11:03:42;98677.63;;;5.41;82.00
28935;BME280;16044;52.726;-2.108;2023-01-15T11:06:18;98687.53;;;5.56;81.53
28935;BME280;16044;52.726;-2.108;2023-01-15T11:08:56;98690.00;;;5.57;81.17
28935;BME280;16044;52.726;-2.108;2023-01-15T11:11:43;98685.66;;;5.56;81.05
28935;BME280;16044;52.726;-2.108;2023-01-15T11:14:39;98683.25;;;5.61;80.07
28935;BME280;16044;52.726;-2.108;2023-01-15T11:17:43;98685.81;;;5.70;80.30
28935;BME280;16044;52.726;-2.108;2023-01-15T11:20:32;98696.00;;;5.74;80.15
28935;BME280;16044;52.726;-2.108;2023-01-15T11:23:12;98698.50;;;5.76;79.35
28935;BME280;16044;52.726;-2.108;2023-01-15T11:25:52;98695.81;;;5.76;79.36
28935;BME280;16044;52.726;-2.108;2023-01-15T11:28:37;98693.75;;;5.78;79.26
28935;BME280;16044;52.726;-2.108;2023-01-15T11:31:08;98700.53;;;5.74;78.95
28935;BME280;16044;52.726;-2.108;2023-01-15T11:33:37;98692.34;;;5.82;78.61
28935;BME280;16044;52.726;-2.108;2023-01-15T11:36:20;98688.78;;;5.75;79.03
28935;BME280;16044;52.726;-2.108;2023-01-15T11:38:51;98693.66;;;5.86;79.55
28935;BME280;16044;52.726;-2.108;2023-01-15T11:44:13;98684.50;;;5.80;79.88
28935;BME280;16044;52.726;-2.108;2023-01-15T11:47:01;98684.09;;;5.83;80.36
28935;BME280;16044;52.726;-2.108;2023-01-15T11:49:53;98685.19;;;5.89;80.21
28935;BME280;16044;52.726;-2.108;2023-01-15T11:52:46;98682.91;;;5.86;80.38
28935;BME280;16044;52.726;-2.108;2023-01-15T11:55:21;98676.03;;;5.83;79.75
28935;BME280;16044;52.726;-2.108;2023-01-15T11:57:52;98672.16;;;5.86;79.56
28935;BME280;16044;52.726;-2.108;2023-01-15T12:00:23;98679.19;;;5.87;79.64
28935;BME280;16044;52.726;-2.108;2023-01-15T12:02:59;98679.19;;;5.87;79.36
28935;BME280;16044;52.726;-2.108;2023-01-15T12:05:34;98679.53;;;5.84;79.56
28935;BME280;16044;52.726;-2.108;2023-01-15T12:08:12;98669.19;;;5.81;79.73
28935;BME280;16044;52.726;-2.108;2023-01-15T12:10:53;98671.28;;;5.85;79.72
28935;BME280;16044;52.726;-2.108;2023-01-15T12:17:12;98678.81;;;5.90;79.25
28935;BME280;16044;52.726;-2.108;2023-01-15T12:28:31;98670.63;;;5.98;80.09
28935;BME280;16044;52.726;-2.108;2023-01-15T12:31:10;98674.16;;;5.99;79.91
28935;BME280;16044;52.726;-2.108;2023-01-15T12:38:59;98675.44;;;6.03;80.85
28935;BME280;16044;52.726;-2.108;2023-01-15T12:41:31;98667.69;;;6.15;80.39
28935;BME280;16044;52.726;-2.108;2023-01-15T12:44:27;98662.69;;;6.12;80.40
28935;BME280;16044;52.726;-2.108;2023-01-15T12:47:35;98672.47;;;6.19;80.85
28935;BME280;16044;52.726;-2.108;2023-01-15T12:53:19;98658.25;;;6.25;80.12
28935;BME280;16044;52.726;-2.108;2023-01-15T12:55:54;98665.03;;;6.21;80.13
28935;BME280;16044;52.726;-2.108;2023-01-15T12:58:43;98668.16;;;6.18;80.36
28935;BME280;16044;52.726;-2.108;2023-01-15T13:07:04;98668.34;;;6.17;80.51
28935;BME280;16044;52.726;-2.108;2023-01-15T13:10:06;98665.47;;;6.18;80.54
28935;BME280;16044;52.726;-2.108;2023-01-15T13:12:35;98671.91;;;6.24;80.85
28935;BME280;16044;52.726;-2.108;2023-01-15T13:15:03;98661.59;;;6.28;80.63
28935;BME280;16044;52.726;-2.108;2023-01-15T13:22:51;98674.22;;;6.27;80.63
28935;BME280;16044;52.726;-2.108;2023-01-15T13:25:53;98673.81;;;6.30;80.59
28935;BME280;16044;52.726;-2.108;2023-01-15T13:28:50;98672.56;;;6.26;80.56
28935;BME280;16044;52.726;-2.108;2023-01-15T13:36:58;98669.34;;;6.37;81.50
28935;BME280;16044;52.726;-2.108;2023-01-15T13:39:52;98669.91;;;6.33;83.59
28935;BME280;16044;52.726;-2.108;2023-01-15T13:42:25;98660.88;;;6.40;83.44
28935;BME280;16044;52.726;-2.108;2023-01-15T13:45:06;98659.66;;;6.43;83.58
28935;BME280;16044;52.726;-2.108;2023-01-15T13:47:51;98667.72;;;6.43;83.75
28935;BME280;16044;52.726;-2.108;2023-01-15T13:50:31;98666.75;;;6.51;83.77
28935;BME280;16044;52.726;-2.108;2023-01-15T13:55:49;98667.28;;;6.39;83.13
28935;BME280;16044;52.726;-2.108;2023-01-15T13:58:33;98664.81;;;6.44;82.54
28935;BME280;16044;52.726;-2.108;2023-01-15T14:03:36;98671.50;;;6.49;83.63
28935;BME280;16044;52.726;-2.108;2023-01-15T14:06:06;98671.50;;;6.49;82.31
28935;BME280;16044;52.726;-2.108;2023-01-15T14:08:42;98665.06;;;6.50;81.42
28935;BME280;16044;52.726;-2.108;2023-01-15T14:11:36;98660.75;;;6.49;81.60
28935;BME280;16044;52.726;-2.108;2023-01-15T14:28:28;98666.56;;;6.52;82.03
28935;BME280;16044;52.726;-2.108;2023-01-15T14:34:15;98660.28;;;6.45;82.31
28935;BME280;16044;52.726;-2.108;2023-01-15T14:36:58;98652.84;;;6.47;82.52
28935;BME280;16044;52.726;-2.108;2023-01-15T14:47:49;98668.94;;;6.40;82.55
28935;BME280;16044;52.726;-2.108;2023-01-15T14:50:30;98664.41;;;6.41;81.99
28935;BME280;16044;52.726;-2.108;2023-01-15T14:56:09;98656.00;;;6.29;81.67
28935;BME280;16044;52.726;-2.108;2023-01-15T14:59:22;98650.19;;;6.25;82.33
28935;BME280;16044;52.726;-2.108;2023-01-15T15:02:04;98654.34;;;6.28;82.32
28935;BME280;16044;52.726;-2.108;2023-01-15T15:04:47;98650.63;;;6.29;81.88
28935;BME280;16044;52.726;-2.108;2023-01-15T15:07:21;98656.59;;;6.24;82.01
28935;BME280;16044;52.726;-2.108;2023-01-15T15:10:01;98661.72;;;6.19;82.44
28935;BME280;16044;52.726;-2.108;2023-01-15T15:15:18;98659.63;;;6.15;83.96
28935;BME280;16044;52.726;-2.108;2023-01-15T15:18:12;98653.41;;;6.14;84.71
28935;BME280;16044;52.726;-2.108;2023-01-15T15:21:25;98657.91;;;6.07;85.16
28935;BME280;16044;52.726;-2.108;2023-01-15T15:24:20;98657.06;;;6.07;85.42
28935;BME280;16044;52.726;-2.108;2023-01-15T15:26:50;98653.09;;;6.02;86.01
28935;BME280;16044;52.726;-2.108;2023-01-15T15:29:18;98650.81;;;5.99;86.03
28935;BME280;16044;52.726;-2.108;2023-01-15T15:31:49;98646.63;;;5.97;86.50
28935;BME280;16044;52.726;-2.108;2023-01-15T15:34:25;98646.25;;;6.00;86.54
28935;BME280;16044;52.726;-2.108;2023-01-15T15:36:56;98648.47;;;5.96;87.25
28935;BME280;16044;52.726;-2.108;2023-01-15T15:42:39;98638.22;;;5.85;88.21
28935;BME280;16044;52.726;-2.108;2023-01-15T15:45:30;98628.09;;;5.87;88.12